sensor_id;sensor_type;location;lat;lon;timestamp;temperature;humidity
32947;DHT22;54465;51.230;22.504;2022-10-31T00:00:40;12.70;99.90
32947;DHT22;54465;51.230;22.504;2022-10-31T00:03:42;12.70;99.90
32947;DHT22;54465;51.230;22.504;2022-10-31T00:06:45;12.60;99.90
32947;DHT22;54465;51.230;22.504;2022-10-31T00:09:47;12.60;99.90
32947;DHT22;54465;51.230;22.504;2022-10-31T00:12:49;12.50;99.90
32947;DHT22;54465;51.230;22.504;2022-10-31T00:15:54;12.40;99.90
32947;DHT22;54465;51.230;22.504;2022-10-31T00:18:58;12.50;99.90
32947;DHT22;54465;51.230;22.504;2022-10-31T00:22:01;12.40;99.90
32947;DHT22;54465;51.230;22.504;2022-10-31T00:25:03;12.40;99.90
32947;DHT22;54465;51.230;22.504;2022-10-31T00:28:07;12.30;99.90
32947;DHT22;54465;51.230;22.504;2022-10-31T00:31:12;12.40;99.90
32947;DHT22;54465;51.230;22.504;2022-10-31T00:34:15;12.40;99.90
32947;DHT22;54465;51.230;22.504;2022-10-31T00:37:17;12.40;99.90
32947;DHT22;54465;51.230;22.504;2022-10-31T00:40:19;12.40;99.90
32947;DHT22;54465;51.230;22.504;2022-10-31T00:43:22;12.30;99.90
32947;DHT22;54465;51.230;22.504;2022-10-31T00:46:27;12.30;99.90
32947;DHT22;54465;51.230;22.504;2022-10-31T00:49:29;12.40;99.90
32947;DHT22;54465;51.230;22.504;2022-10-31T00:52:32;12.30;99.90
32947;DHT22;54465;51.230;22.504;2022-10-31T00:55:34;12.40;99.90
32947;DHT22;54465;51.230;22.504;2022-10-31T00:58:37;12.30;99.90
32947;DHT22;54465;51.230;22.504;2022-10-31T01:01:42;12.30;99.90
32947;DHT22;54465;51.230;22.504;2022-10-31T01:04:45;12.30;99.90
32947;DHT22;54465;51.230;22.504;2022-10-31T01:07:49;12.30;99.90
32947;DHT22;54465;51.230;22.504;2022-10-31T01:11:04;12.20;99.90
32947;DHT22;54465;51.230;22.504;2022-10-31T01:14:09;12.20;99.90
32947;DHT22;54465;51.230;22.504;2022-10-31T01:17:13;12.00;99.90
32947;DHT22;54465;51.230;22.504;2022-10-31T01:20:16;11.90;99.90
32947;DHT22;54465;51.230;22.504;2022-10-31T01:23:19;11.80;99.90
32947;DHT22;54465;51.230;22.504;2022-10-31T01:26:23;11.80;99.90
32947;DHT22;54465;51.230;22.504;2022-10-31T01:29:29;11.80;99.90
32947;DHT22;54465;51.230;22.504;2022-10-31T01:32:36;11.80;99.90
32947;DHT22;54465;51.230;22.504;2022-10-31T01:35:38;11.90;99.90
32947;DHT22;54465;51.230;22.504;2022-10-31T01:38:41;11.80;99.90
32947;DHT22;54465;51.230;22.504;2022-10-31T01:41:45;11.80;99.90
32947;DHT22;54465;51.230;22.504;2022-10-31T01:44:54;11.70;99.90
32947;DHT22;54465;51.230;22.504;2022-10-31T01:47:58;11.70;99.90
32947;DHT22;54465;51.230;22.504;2022-10-31T01:51:01;11.60;99.90
32947;DHT22;54465;51.230;22.504;2022-10-31T01:54:10;11.40;99.90
32947;DHT22;54465;51.230;22.504;2022-10-31T01:57:14;11.30;99.90
32947;DHT22;54465;51.230;22.504;2022-10-31T02:00:19;11.20;99.90
32947;DHT22;54465;51.230;22.504;2022-10-31T02:03:24;11.30;99.90
32947;DHT22;54465;51.230;22.504;2022-10-31T02:06:31;11.30;99.90
32947;DHT22;54465;51.230;22.504;2022-10-31T02:09:36;11.40;99.90
32947;DHT22;54465;51.230;22.504;2022-10-31T02:12:40;11.40;99.90
32947;DHT22;54465;51.230;22.504;2022-10-31T02:15:44;11.40;99.90
32947;DHT22;54465;51.230;22.504;2022-10-31T02:18:48;11.50;99.90
32947;DHT22;54465;51.230;22.504;2022-10-31T02:21:56;11.40;99.90
32947;DHT22;54465;51.230;22.504;2022-10-31T02:25:16;11.40;99.90
32947;DHT22;54465;51.230;22.504;2022-10-31T02:28:41;11.40;99.90
32947;DHT22;54465;51.230;22.504;2022-10-31T02:31:55;11.40;99.90
32947;DHT22;54465;51.230;22.504;2022-10-31T02:35:08;11.30;99.90
32947;DHT22;54465;51.230;22.504;2022-10-31T02:38:47;11.30;99.90
32947;DHT22;54465;51.230;22.504;2022-10-31T02:42:08;11.20;99.90
32947;DHT22;54465;51.230;22.504;2022-10-31T02:45:16;11.10;99.90
32947;DHT22;54465;51.230;22.504;2022-10-31T02:48:26;11.00;99.90
32947;DHT22;54465;51.230;22.504;2022-10-31T02:51:29;11.00;99.90
32947;DHT22;54465;51.230;22.504;2022-10-31T02:54:32;10.90;99.90
32947;DHT22;54465;51.230;22.504;2022-10-31T02:57:35;11.00;99.90
32947;DHT22;54465;51.230;22.504;2022-10-31T03:00:45;11.00;99.90
32947;DHT22;54465;51.230;22.504;2022-10-31T03:04:07;11.00;99.90
32947;DHT22;54465;51.230;22.504;2022-10-31T03:07:23;11.00;99.90
32947;DHT22;54465;51.230;22.504;2022-10-31T03:10:35;10.90;99.90
32947;DHT22;54465;51.230;22.504;2022-10-31T03:13:42;10.90;99.90
32947;DHT22;54465;51.230;22.504;2022-10-31T03:16:50;10.80;99.90
32947;DHT22;54465;51.230;22.504;2022-10-31T03:19:55;10.80;99.90
32947;DHT22;54465;51.230;22.504;2022-10-31T03:23:01;10.90;99.90
32947;DHT22;54465;51.230;22.504;2022-10-31T03:26:06;10.90;99.90
32947;DHT22;54465;51.230;22.504;2022-10-31T03:29:12;10.90;99.90
32947;DHT22;54465;51.230;22.504;2022-10-31T03:32:19;10.80;99.90
32947;DHT22;54465;51.230;22.504;2022-10-31T03:35:27;10.80;99.90
32947;DHT22;54465;51.230;22.504;2022-10-31T03:38:32;10.80;99.90
32947;DHT22;54465;51.230;22.504;2022-10-31T03:41:40;10.80;99.90
32947;DHT22;54465;51.230;22.504;2022-10-31T03:44:46;10.90;99.90
32947;DHT22;54465;51.230;22.504;2022-10-31T03:47:54;10.80;99.90
32947;DHT22;54465;51.230;22.504;2022-10-31T03:51:05;10.80;99.90
32947;DHT22;54465;51.230;22.504;2022-10-31T03:54:11;10.80;99.90
32947;DHT22;54465;51.230;22.504;2022-10-31T03:57:21;10.80;99.90
32947;DHT22;54465;51.230;22.504;2022-10-31T04:00:24;10.90;99.90
32947;DHT22;54465;51.230;22.504;2022-10-31T04:03:31;10.90;99.90
32947;DHT22;54465;51.230;22.504;2022-10-31T04:06:38;10.80;99.90
32947;DHT22;54465;51.230;22.504;2022-10-31T04:09:43;10.80;99.90
32947;DHT22;54465;51.230;22.504;2022-10-31T04:12:50;10.80;99.90
32947;DHT22;54465;51.230;22.504;2022-10-31T04:15:57;10.70;99.90
32947;DHT22;54465;51.230;22.504;2022-10-31T04:19:00;10.60;99.90
32947;DHT22;54465;51.230;22.504;2022-10-31T04:22:03;10.60;99.90
32947;DHT22;54465;51.230;22.504;2022-10-31T04:25:07;10.50;99.90
32947;DHT22;54465;51.230;22.504;2022-10-31T04:28:09;10.50;99.90
32947;DHT22;54465;51.230;22.504;2022-10-31T04:31:14;10.40;99.90
32947;DHT22;54465;51.230;22.504;2022-10-31T04:34:18;10.30;99.90
32947;DHT22;54465;51.230;22.504;2022-10-31T04:37:22;10.20;99.90
32947;DHT22;54465;51.230;22.504;2022-10-31T04:40:25;10.10;99.90
32947;DHT22;54465;51.230;22.504;2022-10-31T04:43:56;10.00;99.90
32947;DHT22;54465;51.230;22.504;2022-10-31T04:47:02;9.90;99.90
32947;DHT22;54465;51.230;22.504;2022-10-31T04:50:05;9.80;99.90
32947;DHT22;54465;51.230;22.504;2022-10-31T04:53:12;9.90;99.90
32947;DHT22;54465;51.230;22.504;2022-10-31T04:56:34;9.90;99.90
32947;DHT22;54465;51.230;22.504;2022-10-31T04:59:44;9.80;99.90
32947;DHT22;54465;51.230;22.504;2022-10-31T05:02:47;9.80;99.90
32947;DHT22;54465;51.230;22.504;2022-10-31T05:05:50;9.90;99.90
32947;DHT22;54465;51.230;22.504;2022-10-31T05:08:53;9.80;99.90
32947;DHT22;54465;51.230;22.504;2022-10-31T05:11:56;9.90;99.90
32947;DHT22;54465;51.230;22.504;2022-10-31T05:15:17;9.90;99.90
32947;DHT22;54465;51.230;22.504;2022-10-31T05:18:38;9.90;99.90
32947;DHT22;54465;51.230;22.504;2022-10-31T05:21:59;9.90;99.90
32947;DHT22;54465;51.230;22.504;2022-10-31T05:25:05;9.80;99.90
32947;DHT22;54465;51.230;22.504;2022-10-31T05:28:08;9.80;99.90
32947;DHT22;54465;51.230;22.504;2022-10-31T05:31:10;9.80;99.90
32947;DHT22;54465;51.230;22.504;2022-10-31T05:34:13;9.80;99.90
32947;DHT22;54465;51.230;22.504;2022-10-31T05:37:38;9.70;99.90
32947;DHT22;54465;51.230;22.504;2022-10-31T05:40:41;9.70;99.90
32947;DHT22;54465;51.230;22.504;2022-10-31T05:43:45;9.60;99.90
32947;DHT22;54465;51.230;22.504;2022-10-31T05:46:48;9.60;99.90
32947;DHT22;54465;51.230;22.504;2022-10-31T05:50:26;9.50;99.90
32947;DHT22;54465;51.230;22.504;2022-10-31T05:53:42;9.50;99.90
32947;DHT22;54465;51.230;22.504;2022-10-31T05:56:46;9.50;99.90
32947;DHT22;54465;51.230;22.504;2022-10-31T05:59:48;9.50;99.90
32947;DHT22;54465;51.230;22.504;2022-10-31T06:02:58;9.50;99.90
32947;DHT22;54465;51.230;22.504;2022-10-31T06:06:13;9.60;99.90
32947;DHT22;54465;51.230;22.504;2022-10-31T06:09:16;9.70;99.90
32947;DHT22;54465;51.230;22.504;2022-10-31T06:12:21;9.80;99.90
32947;DHT22;54465;51.230;22.504;2022-10-31T06:16:01;9.80;99.90
32947;DHT22;54465;51.230;22.504;2022-10-31T06:19:10;9.80;99.90
32947;DHT22;54465;51.230;22.504;2022-10-31T06:22:13;9.80;99.90
32947;DHT22;54465;51.230;22.504;2022-10-31T06:25:15;9.80;99.90
32947;DHT22;54465;51.230;22.504;2022-10-31T06:28:24;9.80;99.90
32947;DHT22;54465;51.230;22.504;2022-10-31T06:31:45;10.00;99.90
32947;DHT22;54465;51.230;22.504;2022-10-31T06:34:47;10.10;99.90
32947;DHT22;54465;51.230;22.504;2022-10-31T06:37:53;10.10;99.90
32947;DHT22;54465;51.230;22.504;2022-10-31T06:41:16;10.20;99.90
32947;DHT22;54465;51.230;22.504;2022-10-31T06:44:24;10.10;99.90
32947;DHT22;54465;51.230;22.504;2022-10-31T06:47:51;10.10;99.90
32947;DHT22;54465;51.230;22.504;2022-10-31T06:51:00;10.10;99.90
32947;DHT22;54465;51.230;22.504;2022-10-31T06:54:02;10.10;99.90
32947;DHT22;54465;51.230;22.504;2022-10-31T06:57:05;10.20;99.90
32947;DHT22;54465;51.230;22.504;2022-10-31T07:00:11;10.30;99.90
32947;DHT22;54465;51.230;22.504;2022-10-31T07:03:28;10.30;99.90
32947;DHT22;54465;51.230;22.504;2022-10-31T07:06:31;10.40;99.90
32947;DHT22;54465;51.230;22.504;2022-10-31T07:09:33;10.50;99.90
32947;DHT22;54465;51.230;22.504;2022-10-31T07:12:38;10.50;99.90
32947;DHT22;54465;51.230;22.504;2022-10-31T07:15:45;10.60;99.90
32947;DHT22;54465;51.230;22.504;2022-10-31T07:18:49;10.60;99.90
32947;DHT22;54465;51.230;22.504;2022-10-31T07:21:51;10.80;99.90
32947;DHT22;54465;51.230;22.504;2022-10-31T07:24:53;10.90;99.90
32947;DHT22;54465;51.230;22.504;2022-10-31T07:28:11;11.00;99.90
32947;DHT22;54465;51.230;22.504;2022-10-31T07:31:14;11.00;99.90
32947;DHT22;54465;51.230;22.504;2022-10-31T07:34:17;11.10;99.90
32947;DHT22;54465;51.230;22.504;2022-10-31T07:37:38;11.20;99.90
32947;DHT22;54465;51.230;22.504;2022-10-31T07:40:41;11.30;99.90
32947;DHT22;54465;51.230;22.504;2022-10-31T07:43:44;11.50;99.90
32947;DHT22;54465;51.230;22.504;2022-10-31T07:46:54;11.70;99.90
32947;DHT22;54465;51.230;22.504;2022-10-31T07:50:18;11.80;99.90
32947;DHT22;54465;51.230;22.504;2022-10-31T07:53:44;11.90;99.90
32947;DHT22;54465;51.230;22.504;2022-10-31T07:56:57;12.00;99.90
32947;DHT22;54465;51.230;22.504;2022-10-31T07:59:59;12.20;99.90
32947;DHT22;54465;51.230;22.504;2022-10-31T08:03:06;12.30;99.90
32947;DHT22;54465;51.230;22.504;2022-10-31T08:06:27;12.40;99.90
32947;DHT22;54465;51.230;22.504;2022-10-31T08:09:46;12.50;99.90
32947;DHT22;54465;51.230;22.504;2022-10-31T08:13:03;12.70;99.90
32947;DHT22;54465;51.230;22.504;2022-10-31T08:16:08;12.90;99.90
32947;DHT22;54465;51.230;22.504;2022-10-31T08:19:22;12.90;99.90
32947;DHT22;54465;51.230;22.504;2022-10-31T08:22:25;13.00;99.90
32947;DHT22;54465;51.230;22.504;2022-10-31T08:25:29;13.00;99.90
32947;DHT22;54465;51.230;22.504;2022-10-31T08:28:33;13.20;99.90
32947;DHT22;54465;51.230;22.504;2022-10-31T08:31:42;13.30;99.90
32947;DHT22;54465;51.230;22.504;2022-10-31T08:35:05;13.40;99.90
32947;DHT22;54465;51.230;22.504;2022-10-31T08:38:32;13.50;99.90
32947;DHT22;54465;51.230;22.504;2022-10-31T08:41:34;13.50;99.90
32947;DHT22;54465;51.230;22.504;2022-10-31T08:44:38;13.60;99.90
32947;DHT22;54465;51.230;22.504;2022-10-31T08:47:41;13.60;99.90
32947;DHT22;54465;51.230;22.504;2022-10-31T08:50:47;13.70;99.90
32947;DHT22;54465;51.230;22.504;2022-10-31T08:53:49;13.80;99.90
32947;DHT22;54465;51.230;22.504;2022-10-31T08:56:58;13.90;99.90
32947;DHT22;54465;51.230;22.504;2022-10-31T09:00:30;14.10;99.90
32947;DHT22;54465;51.230;22.504;2022-10-31T09:03:40;14.10;99.90
32947;DHT22;54465;51.230;22.504;2022-10-31T09:06:47;14.30;99.90
32947;DHT22;54465;51.230;22.504;2022-10-31T09:09:50;14.40;99.90
32947;DHT22;54465;51.230;22.504;2022-10-31T09:12:58;14.50;99.90
32947;DHT22;54465;51.230;22.504;2022-10-31T09:16:24;14.60;99.90
32947;DHT22;54465;51.230;22.504;2022-10-31T09:19:29;13.30;99.90
32947;DHT22;54465;51.230;22.504;2022-10-31T09:22:34;14.70;99.90
32947;DHT22;54465;51.230;22.504;2022-10-31T09:25:37;14.80;99.90
32947;DHT22;54465;51.230;22.504;2022-10-31T09:29:03;14.80;99.90
32947;DHT22;54465;51.230;22.504;2022-10-31T09:32:06;14.90;99.90
32947;DHT22;54465;51.230;22.504;2022-10-31T09:35:15;15.00;99.90
32947;DHT22;54465;51.230;22.504;2022-10-31T09:38:20;15.10;99.90
32947;DHT22;54465;51.230;22.504;2022-10-31T09:41:30;15.20;99.90
32947;DHT22;54465;51.230;22.504;2022-10-31T09:44:46;15.20;99.90
32947;DHT22;54465;51.230;22.504;2022-10-31T09:48:14;15.30;99.90
32947;DHT22;54465;51.230;22.504;2022-10-31T09:51:45;15.30;99.90
32947;DHT22;54465;51.230;22.504;2022-10-31T09:54:59;15.30;99.90
32947;DHT22;54465;51.230;22.504;2022-10-31T09:58:05;15.30;99.90
32947;DHT22;54465;51.230;22.504;2022-10-31T10:01:21;15.30;99.90
32947;DHT22;54465;51.230;22.504;2022-10-31T10:04:43;15.30;99.90
32947;DHT22;54465;51.230;22.504;2022-10-31T10:08:00;15.40;99.90
32947;DHT22;54465;51.230;22.504;2022-10-31T10:11:43;15.70;99.90
32947;DHT22;54465;51.230;22.504;2022-10-31T10:15:02;16.50;99.90
32947;DHT22;54465;51.230;22.504;2022-10-31T10:18:17;17.70;99.90
32947;DHT22;54465;51.230;22.504;2022-10-31T10:21:33;18.60;99.90
32947;DHT22;54465;51.230;22.504;2022-10-31T10:24:55;18.90;99.90
32947;DHT22;54465;51.230;22.504;2022-10-31T10:28:10;19.00;99.90
32947;DHT22;54465;51.230;22.504;2022-10-31T10:31:16;19.30;99.90
32947;DHT22;54465;51.230;22.504;2022-10-31T10:34:22;19.50;99.90
32947;DHT22;54465;51.230;22.504;2022-10-31T10:37:30;19.20;99.90
32947;DHT22;54465;51.230;22.504;2022-10-31T10:40:34;18.70;99.90
32947;DHT22;54465;51.230;22.504;2022-10-31T10:43:38;18.20;99.90
32947;DHT22;54465;51.230;22.504;2022-10-31T10:46:42;17.90;99.90
32947;DHT22;54465;51.230;22.504;2022-10-31T10:50:04;17.80;99.90
32947;DHT22;54465;51.230;22.504;2022-10-31T10:53:24;17.60;99.90
32947;DHT22;54465;51.230;22.504;2022-10-31T10:56:41;17.50;99.90
32947;DHT22;54465;51.230;22.504;2022-10-31T10:59:49;17.50;99.90
32947;DHT22;54465;51.230;22.504;2022-10-31T11:02:53;17.50;99.90
32947;DHT22;54465;51.230;22.504;2022-10-31T11:05:57;17.40;99.90
32947;DHT22;54465;51.230;22.504;2022-10-31T11:09:11;17.40;99.90
32947;DHT22;54465;51.230;22.504;2022-10-31T11:12:21;17.40;99.90
32947;DHT22;54465;51.230;22.504;2022-10-31T11:15:27;17.30;99.90
32947;DHT22;54465;51.230;22.504;2022-10-31T11:18:37;17.30;99.90
32947;DHT22;54465;51.230;22.504;2022-10-31T11:21:42;17.30;99.90
32947;DHT22;54465;51.230;22.504;2022-10-31T11:24:46;17.20;99.90
32947;DHT22;54465;51.230;22.504;2022-10-31T11:27:59;17.20;99.90
32947;DHT22;54465;51.230;22.504;2022-10-31T11:31:06;17.10;99.90
32947;DHT22;54465;51.230;22.504;2022-10-31T11:34:16;17.00;99.90
32947;DHT22;54465;51.230;22.504;2022-10-31T11:37:25;17.00;99.90
32947;DHT22;54465;51.230;22.504;2022-10-31T11:40:27;16.90;99.90
32947;DHT22;54465;51.230;22.504;2022-10-31T11:43:30;16.90;99.90
32947;DHT22;54465;51.230;22.504;2022-10-31T11:46:37;16.90;99.90
32947;DHT22;54465;51.230;22.504;2022-10-31T11:49:42;16.90;99.90
32947;DHT22;54465;51.230;22.504;2022-10-31T11:52:45;16.80;99.90
32947;DHT22;54465;51.230;22.504;2022-10-31T11:55:59;16.80;99.90
32947;DHT22;54465;51.230;22.504;2022-10-31T11:59:12;16.80;99.90
32947;DHT22;54465;51.230;22.504;2022-10-31T12:02:19;16.80;99.90
32947;DHT22;54465;51.230;22.504;2022-10-31T12:05:26;16.80;99.90
32947;DHT22;54465;51.230;22.504;2022-10-31T12:08:35;16.80;99.90
32947;DHT22;54465;51.230;22.504;2022-10-31T12:11:53;16.80;99.90
32947;DHT22;54465;51.230;22.504;2022-10-31T12:15:11;16.80;99.90
32947;DHT22;54465;51.230;22.504;2022-10-31T12:22:08;16.80;99.90
32947;DHT22;54465;51.230;22.504;2022-10-31T12:25:19;16.80;99.90
32947;DHT22;54465;51.230;22.504;2022-10-31T12:28:42;16.70;99.90
32947;DHT22;54465;51.230;22.504;2022-10-31T12:31:53;16.70;99.90
32947;DHT22;54465;51.230;22.504;2022-10-31T12:35:13;16.70;99.90
32947;DHT22;54465;51.230;22.504;2022-10-31T12:41:44;16.70;99.90
32947;DHT22;54465;51.230;22.504;2022-10-31T12:45:04;16.70;99.90
32947;DHT22;54465;51.230;22.504;2022-10-31T12:48:27;16.80;99.90
32947;DHT22;54465;51.230;22.504;2022-10-31T12:51:42;16.80;99.90
32947;DHT22;54465;51.230;22.504;2022-10-31T12:55:02;16.80;99.90
32947;DHT22;54465;51.230;22.504;2022-10-31T12:58:10;16.80;99.90
32947;DHT22;54465;51.230;22.504;2022-10-31T13:01:18;16.80;99.90
32947;DHT22;54465;51.230;22.504;2022-10-31T13:04:27;16.80;99.90
32947;DHT22;54465;51.230;22.504;2022-10-31T13:07:39;16.80;99.90
32947;DHT22;54465;51.230;22.504;2022-10-31T13:10:46;16.80;99.90
32947;DHT22;54465;51.230;22.504;2022-10-31T13:13:57;16.90;99.90
32947;DHT22;54465;51.230;22.504;2022-10-31T13:17:01;16.90;99.90
32947;DHT22;54465;51.230;22.504;2022-10-31T13:20:18;17.00;99.90
32947;DHT22;54465;51.230;22.504;2022-10-31T13:23:28;17.10;99.90
32947;DHT22;54465;51.230;22.504;2022-10-31T13:26:37;17.20;99.90
32947;DHT22;54465;51.230;22.504;2022-10-31T13:29:44;17.20;99.90
32947;DHT22;54465;51.230;22.504;2022-10-31T13:32:52;17.30;99.90
32947;DHT22;54465;51.230;22.504;2022-10-31T13:36:07;17.30;99.90
32947;DHT22;54465;51.230;22.504;2022-10-31T13:39:21;17.40;99.90
32947;DHT22;54465;51.230;22.504;2022-10-31T13:42:37;17.40;99.90
32947;DHT22;54465;51.230;22.504;2022-10-31T13:45:50;17.50;99.90
32947;DHT22;54465;51.230;22.504;2022-10-31T13:48:54;17.50;99.90
32947;DHT22;54465;51.230;22.504;2022-10-31T13:52:07;17.40;99.90
32947;DHT22;54465;51.230;22.504;2022-10-31T13:55:35;17.50;99.90
32947;DHT22;54465;51.230;22.504;2022-10-31T13:58:41;17.50;99.90
32947;DHT22;54465;51.230;22.504;2022-10-31T14:01:56;17.40;99.90
32947;DHT22;54465;51.230;22.504;2022-10-31T14:05:03;17.40;99.90
32947;DHT22;54465;51.230;22.504;2022-10-31T14:08:18;17.30;99.90
32947;DHT22;54465;51.230;22.504;2022-10-31T14:11:25;17.30;99.90
32947;DHT22;54465;51.230;22.504;2022-10-31T14:14:40;17.20;99.90
32947;DHT22;54465;51.230;22.504;2022-10-31T14:17:46;17.10;99.90
32947;DHT22;54465;51.230;22.504;2022-10-31T14:20:49;17.10;99.90
32947;DHT22;54465;51.230;22.504;2022-10-31T14:23:53;17.00;99.90
32947;DHT22;54465;51.230;22.504;2022-10-31T14:27:00;16.90;99.90
32947;DHT22;54465;51.230;22.504;2022-10-31T14:30:18;16.80;99.90
32947;DHT22;54465;51.230;22.504;2022-10-31T14:33:22;16.70;99.90
32947;DHT22;54465;51.230;22.504;2022-10-31T14:36:34;16.70;99.90
32947;DHT22;54465;51.230;22.504;2022-10-31T14:39:50;16.60;99.90
32947;DHT22;54465;51.230;22.504;2022-10-31T14:43:28;16.50;99.90
32947;DHT22;54465;51.230;22.504;2022-10-31T14:46:41;16.30;99.90
32947;DHT22;54465;51.230;22.504;2022-10-31T14:53:23;16.10;99.90
32947;DHT22;54465;51.230;22.504;2022-10-31T14:56:30;16.00;99.90
32947;DHT22;54465;51.230;22.504;2022-10-31T14:59:37;16.00;99.90
32947;DHT22;54465;51.230;22.504;2022-10-31T15:02:48;15.90;99.90
32947;DHT22;54465;51.230;22.504;2022-10-31T15:05:53;15.80;99.90
32947;DHT22;54465;51.230;22.504;2022-10-31T15:08:56;15.60;99.90
32947;DHT22;54465;51.230;22.504;2022-10-31T15:11:58;15.40;99.90
32947;DHT22;54465;51.230;22.504;2022-10-31T15:15:12;15.40;99.90
32947;DHT22;54465;51.230;22.504;2022-10-31T15:18:46;15.20;99.90
32947;DHT22;54465;51.230;22.504;2022-10-31T15:22:07;15.10;99.90
32947;DHT22;54465;51.230;22.504;2022-10-31T15:25:20;14.90;99.90
32947;DHT22;54465;51.230;22.504;2022-10-31T15:28:24;14.80;99.90
32947;DHT22;54465;51.230;22.504;2022-10-31T15:31:35;14.80;99.90
32947;DHT22;54465;51.230;22.504;2022-10-31T15:34:40;14.70;99.90
32947;DHT22;54465;51.230;22.504;2022-10-31T15:37:52;14.60;99.90
32947;DHT22;54465;51.230;22.504;2022-10-31T15:40:57;14.50;99.90
32947;DHT22;54465;51.230;22.504;2022-10-31T15:44:14;14.50;99.90
32947;DHT22;54465;51.230;22.504;2022-10-31T15:47:23;14.30;99.90
32947;DHT22;54465;51.230;22.504;2022-10-31T15:50:30;14.20;99.90
32947;DHT22;54465;51.230;22.504;2022-10-31T15:53:44;14.10;99.90
32947;DHT22;54465;51.230;22.504;2022-10-31T15:57:10;14.10;99.90
32947;DHT22;54465;51.230;22.504;2022-10-31T16:00:27;14.00;99.90
32947;DHT22;54465;51.230;22.504;2022-10-31T16:03:40;14.00;99.90
32947;DHT22;54465;51.230;22.504;2022-10-31T16:06:44;14.00;99.90
32947;DHT22;54465;51.230;22.504;2022-10-31T16:09:54;13.90;99.90
32947;DHT22;54465;51.230;22.504;2022-10-31T16:12:58;13.90;99.90
32947;DHT22;54465;51.230;22.504;2022-10-31T16:16:16;13.80;99.90
32947;DHT22;54465;51.230;22.504;2022-10-31T16:19:29;13.80;99.90
32947;DHT22;54465;51.230;22.504;2022-10-31T16:22:34;13.80;99.90
32947;DHT22;54465;51.230;22.504;2022-10-31T16:25:38;13.70;99.90
32947;DHT22;54465;51.230;22.504;2022-10-31T16:29:22;13.70;99.90
32947;DHT22;54465;51.230;22.504;2022-10-31T16:32:33;13.60;99.90
32947;DHT22;54465;51.230;22.504;2022-10-31T16:35:39;13.60;99.90
32947;DHT22;54465;51.230;22.504;2022-10-31T16:39:01;13.60;99.90
32947;DHT22;54465;51.230;22.504;2022-10-31T16:42:04;13.60;99.90
32947;DHT22;54465;51.230;22.504;2022-10-31T16:45:07;13.60;99.90
32947;DHT22;54465;51.230;22.504;2022-10-31T16:48:21;13.60;99.90
32947;DHT22;54465;51.230;22.504;2022-10-31T16:51:30;13.60;99.90
32947;DHT22;54465;51.230;22.504;2022-10-31T16:54:34;13.50;99.90
32947;DHT22;54465;51.230;22.504;2022-10-31T16:57:37;13.50;99.90
32947;DHT22;54465;51.230;22.504;2022-10-31T17:00:40;13.50;99.90
32947;DHT22;54465;51.230;22.504;2022-10-31T17:03:47;13.50;99.90
32947;DHT22;54465;51.230;22.504;2022-10-31T17:06:51;13.50;99.90
32947;DHT22;54465;51.230;22.504;2022-10-31T17:09:59;13.40;99.90
32947;DHT22;54465;51.230;22.504;2022-10-31T17:13:05;13.30;99.90
32947;DHT22;54465;51.230;22.504;2022-10-31T17:16:13;13.30;99.90
32947;DHT22;54465;51.230;22.504;2022-10-31T17:19:16;13.30;99.90
32947;DHT22;54465;51.230;22.504;2022-10-31T17:22:20;13.20;99.90
32947;DHT22;54465;51.230;22.504;2022-10-31T17:25:26;13.20;99.90
32947;DHT22;54465;51.230;22.504;2022-10-31T17:28:29;13.20;99.90
32947;DHT22;54465;51.230;22.504;2022-10-31T17:31:36;13.30;99.90
32947;DHT22;54465;51.230;22.504;2022-10-31T17:34:54;13.30;99.90
32947;DHT22;54465;51.230;22.504;2022-10-31T17:37:58;13.20;99.90
32947;DHT22;54465;51.230;22.504;2022-10-31T17:41:04;13.10;99.90
32947;DHT22;54465;51.230;22.504;2022-10-31T17:44:09;13.10;99.90
32947;DHT22;54465;51.230;22.504;2022-10-31T17:47:17;13.10;99.90
32947;DHT22;54465;51.230;22.504;2022-10-31T17:50:21;13.10;99.90
32947;DHT22;54465;51.230;22.504;2022-10-31T17:53:27;13.00;99.90
32947;DHT22;54465;51.230;22.504;2022-10-31T17:56:30;13.00;99.90
32947;DHT22;54465;51.230;22.504;2022-10-31T17:59:36;13.00;99.90
32947;DHT22;54465;51.230;22.504;2022-10-31T18:02:39;13.00;99.90
32947;DHT22;54465;51.230;22.504;2022-10-31T18:05:52;12.90;99.90
32947;DHT22;54465;51.230;22.504;2022-10-31T18:09:01;12.90;99.90
32947;DHT22;54465;51.230;22.504;2022-10-31T18:12:06;12.80;99.90
32947;DHT22;54465;51.230;22.504;2022-10-31T18:15:10;12.80;99.90
32947;DHT22;54465;51.230;22.504;2022-10-31T18:18:13;12.70;99.90
32947;DHT22;54465;51.230;22.504;2022-10-31T18:21:15;12.70;99.90
32947;DHT22;54465;51.230;22.504;2022-10-31T18:24:19;12.70;99.90
32947;DHT22;54465;51.230;22.504;2022-10-31T18:27:21;12.60;99.90
32947;DHT22;54465;51.230;22.504;2022-10-31T18:30:23;12.60;99.90
32947;DHT22;54465;51.230;22.504;2022-10-31T18:33:28;12.50;99.90
32947;DHT22;54465;51.230;22.504;2022-10-31T18:36:30;12.50;99.90
32947;DHT22;54465;51.230;22.504;2022-10-31T18:39:35;12.60;99.90
32947;DHT22;54465;51.230;22.504;2022-10-31T18:42:37;12.50;99.90
32947;DHT22;54465;51.230;22.504;2022-10-31T18:45:40;12.50;99.90
32947;DHT22;54465;51.230;22.504;2022-10-31T18:48:44;12.50;99.90
32947;DHT22;54465;51.230;22.504;2022-10-31T18:51:47;12.60;99.90
32947;DHT22;54465;51.230;22.504;2022-10-31T18:54:52;12.60;99.90
32947;DHT22;54465;51.230;22.504;2022-10-31T18:57:54;12.60;99.90
32947;DHT22;54465;51.230;22.504;2022-10-31T19:01:03;12.60;99.90
32947;DHT22;54465;51.230;22.504;2022-10-31T19:04:08;12.60;99.90
32947;DHT22;54465;51.230;22.504;2022-10-31T19:07:12;12.50;99.90
32947;DHT22;54465;51.230;22.504;2022-10-31T19:10:17;12.40;99.90
32947;DHT22;54465;51.230;22.504;2022-10-31T19:13:25;12.30;99.90
32947;DHT22;54465;51.230;22.504;2022-10-31T19:16:29;12.30;99.90
32947;DHT22;54465;51.230;22.504;2022-10-31T19:19:32;12.20;99.90
32947;DHT22;54465;51.230;22.504;2022-10-31T19:22:40;12.10;99.90
32947;DHT22;54465;51.230;22.504;2022-10-31T19:25:44;12.10;99.90
32947;DHT22;54465;51.230;22.504;2022-10-31T19:28:49;12.00;99.90
32947;DHT22;54465;51.230;22.504;2022-10-31T19:31:51;12.00;99.90
32947;DHT22;54465;51.230;22.504;2022-10-31T19:34:56;11.80;99.90
32947;DHT22;54465;51.230;22.504;2022-10-31T19:38:01;11.90;99.90
32947;DHT22;54465;51.230;22.504;2022-10-31T19:41:13;11.80;99.90
32947;DHT22;54465;51.230;22.504;2022-10-31T19:44:16;11.80;99.90
32947;DHT22;54465;51.230;22.504;2022-10-31T19:47:28;11.80;99.90